Time;durP1;ratioP1;P1;durP2;ratioP2;P2;SDS_P1;SDS_P2;PMS_P1;PMS_P2;Temp;Humidity;BMP_temperature;BMP_pressure;BME280_temperature;BME280_humidity;BME280_pressure;Samples;Min_cycle;Max_cycle;Signal;HPM_P1;HPM_P2
2021/03/31 00:00:37;;;;;;;;;40.33;35.33;;;;;10.51;75.30;100931.47;5004964;28;8851;-56
2021/03/31 00:03:13;;;;;;;;;38.67;33.67;;;;;10.26;74.91;100932.41;5003957;28;8910;-57
2021/03/31 00:05:41;;;;;;;;;38.00;28.67;;;;;10.37;75.09;100928.47;5008621;28;8909;-57
2021/03/31 00:08:09;;;;;;;;;31.33;24.33;;;;;10.00;76.27;100921.84;5009482;28;8847;-57
2021/03/31 00:10:50;;;;;;;;;38.00;34.00;;;;;9.92;75.84;100922.16;5008522;28;8868;-57
2021/03/31 00:13:23;;;;;;;;;27.33;22.67;;;;;10.01;76.19;100915.56;5005634;28;8874;-56
2021/03/31 00:15:52;;;;;;;;;35.67;29.67;;;;;9.83;76.28;100918.03;5011378;28;8842;-57
2021/03/31 00:18:21;;;;;;;;;36.33;29.33;;;;;10.08;76.18;100911.69;5024489;28;8964;-57
2021/03/31 00:20:50;;;;;;;;;42.33;32.00;;;;;9.99;75.73;100912.06;5006900;28;8951;-55
2021/03/31 00:23:22;;;;;;;;;32.67;22.33;;;;;9.98;76.32;100919.25;5003071;28;8863;-57
2021/03/31 00:25:49;;;;;;;;;32.33;28.00;;;;;10.06;77.09;100921.63;5011948;28;8946;-57
2021/03/31 00:28:18;;;;;;;;;38.00;33.33;;;;;10.08;77.00;100919.75;5004774;28;8857;-57
2021/03/31 00:30:45;;;;;;;;;33.67;27.33;;;;;9.82;76.89;100916.28;5006736;28;8965;-57
2021/03/31 00:33:13;;;;;;;;;37.00;29.67;;;;;9.91;77.09;100914.19;5010046;28;8839;-57
2021/03/31 00:35:41;;;;;;;;;32.67;29.33;;;;;9.94;77.59;100904.19;5005810;28;8809;-56
2021/03/31 00:38:09;;;;;;;;;41.33;32.67;;;;;10.00;76.56;100920.03;5009999;28;8831;-57
2021/03/31 00:40:41;;;;;;;;;41.00;35.00;;;;;9.91;77.38;100917.72;5011427;28;8893;-56
2021/03/31 00:43:09;;;;;;;;;42.33;35.33;;;;;9.82;77.75;100907.34;5011728;28;8835;-56
2021/03/31 00:45:37;;;;;;;;;45.00;37.67;;;;;10.01;77.21;100908.41;5011001;28;8831;-56
2021/03/31 00:48:13;;;;;;;;;45.00;33.33;;;;;9.83;77.08;100903.75;5009614;28;8851;-55
2021/03/31 00:50:48;;;;;;;;;41.33;37.00;;;;;9.59;77.66;100908.25;5010350;28;8877;-57
2021/03/31 00:53:19;;;;;;;;;43.67;37.00;;;;;9.73;78.01;100911.28;5010916;28;8842;-57
2021/03/31 00:55:47;;;;;;;;;35.00;32.00;;;;;9.59;77.31;100910.94;5005964;28;8835;-56
2021/03/31 00:58:14;;;;;;;;;54.67;40.67;;;;;9.09;79.71;100905.63;5009631;28;8839;-55
2021/03/31 01:00:41;;;;;;;;;43.33;38.33;;;;;9.18;80.00;100903.47;5011564;28;8851;-56
2021/03/31 01:03:10;;;;;;;;;51.33;37.67;;;;;9.11;79.96;100901.06;5003621;28;8841;-55
2021/03/31 01:05:37;;;;;;;;;47.33;39.00;;;;;9.22;79.19;100896.22;5011872;28;9550;-57
2021/03/31 01:08:04;;;;;;;;;55.00;42.00;;;;;9.14;80.80;100895.63;5011555;28;8873;-57
2021/03/31 01:10:43;;;;;;;;;57.00;41.33;;;;;9.08;81.53;100893.16;5010422;28;8886;-56
2021/03/31 01:13:32;;;;;;;;;57.33;44.00;;;;;9.07;81.84;100907.47;5016460;28;8843;-57
2021/03/31 01:16:17;;;;;;;;;58.67;42.00;;;;;9.11;81.49;100898.38;5008221;28;8839;-57
2021/03/31 01:19:10;;;;;;;;;52.00;41.33;;;;;9.27;80.62;100902.28;5007630;28;8862;-57
2021/03/31 01:22:33;;;;;;;;;61.67;45.67;;;;;9.20;80.50;100906.97;5003715;28;8865;-56
2021/03/31 01:25:37;;;;;;;;;53.67;42.00;;;;;8.97;81.11;100905.13;5005122;28;8833;-56
2021/03/31 01:28:43;;;;;;;;;59.33;43.33;;;;;8.57;82.10;100905.63;5006087;28;8931;-56
2021/03/31 01:31:40;;;;;;;;;57.67;40.67;;;;;8.98;81.21;100906.88;5005544;28;8857;-56
2021/03/31 01:34:30;;;;;;;;;47.33;36.00;;;;;8.51;82.58;100917.41;5006084;28;8948;-56
2021/03/31 01:37:00;;;;;;;;;49.00;38.33;;;;;8.46;82.74;100908.66;5005813;28;8854;-57
2021/03/31 01:39:29;;;;;;;;;52.33;40.67;;;;;8.51;83.20;100901.34;5010267;28;8855;-57
2021/03/31 01:41:59;;;;;;;;;44.00;38.00;;;;;8.38;83.94;100902.66;5005671;28;8845;-59
2021/03/31 01:44:27;;;;;;;;;44.67;38.00;;;;;8.64;82.63;100900.97;5008692;28;8865;-56
2021/03/31 01:46:57;;;;;;;;;48.33;40.33;;;;;8.45;83.52;100901.56;5007125;28;8870;-56
2021/03/31 01:49:27;;;;;;;;;53.00;38.67;;;;;8.47;83.17;100904.19;5005777;28;8854;-57
2021/03/31 01:52:00;;;;;;;;;49.33;37.33;;;;;8.56;83.21;100902.09;5003186;28;8870;-58
2021/03/31 01:54:30;;;;;;;;;35.00;35.00;;;;;8.85;82.50;100910.06;5009138;28;8842;-56
2021/03/31 01:56:58;;;;;;;;;48.33;40.00;;;;;9.06;82.11;100906.63;5009899;28;8839;-57
2021/03/31 01:59:26;;;;;;;;;48.00;36.00;;;;;8.98;81.99;100904.22;5027188;28;8846;-57
2021/03/31 02:01:55;;;;;;;;;42.33;34.33;;;;;9.12;82.31;100897.47;5010345;28;8862;-57
2021/03/31 02:04:24;;;;;;;;;46.33;38.67;;;;;9.17;80.48;100891.03;5010101;28;8962;-56
2021/03/31 02:06:52;;;;;;;;;56.00;41.33;;;;;8.82;81.97;100894.06;5006410;28;9607;-56
2021/03/31 02:09:20;;;;;;;;;46.67;36.00;;;;;9.11;80.78;100893.94;5008494;28;8990;-57
2021/03/31 02:11:48;;;;;;;;;44.33;34.33;;;;;9.12;81.55;100895.66;5008820;28;8851;-57
2021/03/31 02:14:20;;;;;;;;;53.00;40.00;;;;;9.13;81.31;100893.84;5009756;28;8847;-56
2021/03/31 02:16:47;;;;;;;;;44.33;37.00;;;;;9.12;80.86;100892.13;5008060;28;8839;-56
2021/03/31 02:19:19;;;;;;;;;37.67;27.33;;;;;9.10;82.25;100889.47;4989650;28;8831;-56
2021/03/31 02:21:48;;;;;;;;;40.00;34.33;;;;;9.12;82.53;100889.44;5007286;28;8843;-57
2021/03/31 02:24:19;;;;;;;;;51.00;38.33;;;;;9.16;83.02;100886.59;5009260;28;8847;-57
2021/03/31 02:26:47;;;;;;;;;34.67;30.00;;;;;9.11;82.32;100879.63;5001825;28;8949;-57
2021/03/31 02:29:15;;;;;;;;;50.00;36.67;;;;;9.34;80.83;100876.97;5010629;28;8934;-57
2021/03/31 02:31:45;;;;;;;;;40.67;36.67;;;;;9.66;79.35;100877.56;5001917;28;8834;-57
2021/03/31 02:34:16;;;;;;;;;39.67;33.33;;;;;9.44;80.87;100882.88;5004272;28;8843;-57
2021/03/31 02:36:45;;;;;;;;;38.67;35.67;;;;;9.23;82.03;100873.84;5007284;28;8892;-57
2021/03/31 02:39:14;;;;;;;;;38.33;34.33;;;;;9.28;80.70;100877.22;5008906;28;8950;-55
2021/03/31 02:41:48;;;;;;;;;42.00;34.00;;;;;9.44;80.75;100881.06;5007839;28;8869;-56
2021/03/31 02:44:18;;;;;;;;;37.00;32.33;;;;;9.27;81.36;100877.25;5008583;28;8867;-57
2021/03/31 02:46:47;;;;;;;;;42.67;36.33;;;;;9.41;81.36;100873.16;5010521;28;8857;-56
2021/03/31 02:49:16;;;;;;;;;43.67;37.33;;;;;9.30;81.04;100878.03;5002296;28;8880;-57
2021/03/31 02:51:45;;;;;;;;;41.33;33.33;;;;;9.26;81.42;100875.53;4994412;28;8857;-57
2021/03/31 02:54:14;;;;;;;;;42.33;37.33;;;;;9.22;80.96;100869.41;5042916;28;8952;-56
2021/03/31 02:56:42;;;;;;;;;40.67;31.67;;;;;9.18;80.98;100870.44;5013738;28;8844;-57
2021/03/31 02:59:09;;;;;;;;;42.00;33.00;;;;;9.36;80.75;100863.53;5014609;28;8973;-55
2021/03/31 03:01:39;;;;;;;;;39.67;34.00;;;;;9.39;80.23;100866.97;5007454;28;8845;-57
2021/03/31 03:04:06;;;;;;;;;35.33;32.00;;;;;9.23;80.95;100865.78;4995988;28;8861;-57
2021/03/31 03:06:33;;;;;;;;;38.33;30.67;;;;;9.05;81.37;100864.66;5012395;28;8885;-56
2021/03/31 03:09:06;;;;;;;;;37.00;31.00;;;;;9.20;80.59;100871.28;5013555;28;8958;-57
2021/03/31 03:11:35;;;;;;;;;47.00;36.00;;;;;8.99;80.72;100863.09;4995942;28;9772;-56
2021/03/31 03:14:07;;;;;;;;;41.33;31.00;;;;;8.90;82.21;100874.16;5010716;28;8861;-57
2021/03/31 03:16:34;;;;;;;;;45.33;36.00;;;;;8.90;81.94;100863.44;5007107;28;8863;-55
2021/03/31 03:19:02;;;;;;;;;38.00;34.00;;;;;9.04;81.99;100864.75;5011962;28;8847;-57
2021/03/31 03:21:29;;;;;;;;;37.67;34.00;;;;;9.04;81.20;100867.41;5013662;28;8855;-57
2021/03/31 03:23:58;;;;;;;;;34.33;29.00;;;;;9.00;81.38;100859.50;4997871;28;8899;-57
2021/03/31 03:26:27;;;;;;;;;41.00;32.33;;;;;9.12;82.18;100855.47;5001286;28;8839;-56
2021/03/31 03:28:56;;;;;;;;;45.00;34.00;;;;;9.17;80.89;100863.34;4998656;28;8849;-56
2021/03/31 03:31:23;;;;;;;;;38.00;32.00;;;;;9.13;80.75;100859.91;4992971;28;9008;-57
2021/03/31 03:33:50;;;;;;;;;36.00;32.33;;;;;8.95;82.08;100861.47;5006595;28;8933;-57
2021/03/31 03:36:19;;;;;;;;;40.67;31.33;;;;;9.11;82.07;100860.88;5004497;28;8827;-57
2021/03/31 03:38:46;;;;;;;;;38.67;30.67;;;;;9.06;81.97;100861.06;5013873;28;8847;-57
2021/03/31 03:41:14;;;;;;;;;36.00;27.00;;;;;9.00;81.53;100854.13;5036340;28;8964;-55
2021/03/31 03:43:43;;;;;;;;;31.33;29.33;;;;;8.93;82.17;100854.41;5001510;28;8845;-57
2021/03/31 03:46:14;;;;;;;;;47.00;38.00;;;;;8.83;83.15;100858.34;5007788;28;8931;-56
2021/03/31 03:48:41;;;;;;;;;44.00;36.33;;;;;8.76;82.73;100863.91;4992653;28;8850;-55
2021/03/31 03:51:12;;;;;;;;;42.00;34.00;;;;;8.64;84.71;100861.66;4993068;28;8869;-56
2021/03/31 03:53:39;;;;;;;;;48.67;34.00;;;;;8.60;84.75;100860.00;4993991;28;8983;-56
2021/03/31 03:56:13;;;;;;;;;46.33;38.00;;;;;8.63;85.09;100864.38;5009442;28;8831;-57
2021/03/31 03:58:40;;;;;;;;;40.67;36.67;;;;;8.91;83.12;100862.50;5013846;28;8861;-56
2021/03/31 04:01:07;;;;;;;;;38.00;34.67;;;;;8.94;82.49;100862.38;5012639;28;8855;-57
2021/03/31 04:03:35;;;;;;;;;38.00;34.33;;;;;8.81;82.78;100863.75;4993505;28;8845;-56
2021/03/31 04:06:02;;;;;;;;;34.67;28.00;;;;;8.95;82.88;100864.16;4997441;28;8827;-56
2021/03/31 04:08:28;;;;;;;;;37.67;29.33;;;;;9.07;81.67;100867.31;5003163;28;8857;-56
2021/03/31 04:10:58;;;;;;;;;36.33;29.00;;;;;8.81;82.86;100862.88;4993126;28;8896;-57
2021/03/31 04:13:29;;;;;;;;;39.00;33.67;;;;;8.66;82.64;100874.97;4993677;28;8853;-56
2021/03/31 04:16:05;;;;;;;;;37.33;29.33;;;;;8.96;81.73;100871.22;5027534;28;8837;-57
2021/03/31 04:18:34;;;;;;;;;39.33;33.00;;;;;8.96;81.29;100859.66;5012445;28;8855;-56
2021/03/31 04:21:03;;;;;;;;;34.00;24.67;;;;;9.17;80.86;100860.69;5011897;28;8866;-56
2021/03/31 04:23:30;;;;;;;;;37.00;31.00;;;;;9.02;81.85;100867.47;5006662;28;8860;-56
2021/03/31 04:25:58;;;;;;;;;42.33;37.33;;;;;8.93;82.44;100860.63;4992552;28;8838;-57
2021/03/31 04:28:27;;;;;;;;;42.33;37.33;;;;;9.17;81.63;100866.03;4993136;28;8952;-56
2021/03/31 04:30:56;;;;;;;;;39.00;37.33;;;;;8.93;81.60;100868.66;4991790;28;8873;-56
2021/03/31 04:33:24;;;;;;;;;41.00;37.00;;;;;9.00;81.47;100866.63;4993816;28;9622;-56
2021/03/31 04:35:55;;;;;;;;;44.33;37.00;;;;;9.58;78.47;100858.22;5040689;28;8822;-57
2021/03/31 04:38:22;;;;;;;;;43.67;38.67;;;;;9.28;80.11;100861.16;5044557;28;8879;-56
2021/03/31 04:41:00;;;;;;;;;46.67;39.33;;;;;9.22;81.46;100861.38;5011990;28;8855;-57
2021/03/31 04:43:30;;;;;;;;;39.67;36.67;;;;;9.22;80.55;100866.75;5010442;28;9103;-56
2021/03/31 04:46:02;;;;;;;;;45.00;37.00;;;;;9.23;80.52;100866.66;5011153;28;8862;-57
2021/03/31 04:48:30;;;;;;;;;59.00;47.00;;;;;9.18;80.44;100863.28;5012517;28;8863;-57
2021/03/31 04:50:57;;;;;;;;;56.67;40.67;;;;;9.26;81.02;100864.81;5009296;28;8885;-57
2021/03/31 04:53:24;;;;;;;;;43.67;38.67;;;;;9.30;82.04;100861.97;4992887;28;8857;-57
2021/03/31 04:55:51;;;;;;;;;51.00;41.33;;;;;9.57;80.21;100859.16;5007138;28;8828;-56
2021/03/31 04:58:18;;;;;;;;;62.33;44.67;;;;;9.27;81.81;100859.41;4992925;28;8863;-57
2021/03/31 05:00:46;;;;;;;;;59.00;46.67;;;;;9.39;80.99;100853.56;4992093;28;8841;-55
2021/03/31 05:03:12;;;;;;;;;63.67;48.33;;;;;9.59;80.37;100854.63;5001474;28;8873;-56
2021/03/31 05:05:40;;;;;;;;;59.33;48.00;;;;;9.53;79.79;100854.84;5011486;28;8878;-57
2021/03/31 05:08:07;;;;;;;;;50.33;43.33;;;;;9.53;79.77;100846.81;5011032;28;8865;-57
2021/03/31 05:10:35;;;;;;;;;43.67;39.67;;;;;9.48;79.94;100849.69;5011071;28;8847;-57
2021/03/31 05:13:03;;;;;;;;;42.00;34.67;;;;;9.54;80.19;100845.88;5042941;28;8847;-56
2021/03/31 05:15:31;;;;;;;;;39.00;30.33;;;;;9.74;77.91;100853.13;5010896;28;8878;-57
2021/03/31 05:17:58;;;;;;;;;37.00;30.00;;;;;9.60;79.15;100856.38;5011279;28;8855;-57
2021/03/31 05:20:25;;;;;;;;;39.67;35.67;;;;;9.58;79.37;100863.59;5011544;28;8970;-56
2021/03/31 05:22:52;;;;;;;;;38.67;36.33;;;;;9.11;83.54;100869.81;5011411;28;8866;-56
2021/03/31 05:25:18;;;;;;;;;45.33;34.00;;;;;9.21;84.38;100871.19;5010617;28;8847;-56
2021/03/31 05:27:45;;;;;;;;;39.33;30.33;;;;;9.04;85.81;100872.78;4995661;28;8845;-57
2021/03/31 05:30:13;;;;;;;;;35.67;28.00;;;;;9.10;85.64;100877.91;4996283;28;8936;-56
2021/03/31 05:32:41;;;;;;;;;36.33;30.33;;;;;9.37;84.95;100876.00;4997076;28;8893;-55
2021/03/31 05:35:11;;;;;;;;;34.33;30.33;;;;;9.64;82.55;100871.41;5010391;28;8857;-56
2021/03/31 05:37:38;;;;;;;;;36.00;33.33;;;;;9.17;83.60;100874.06;5008513;28;8843;-55
2021/03/31 05:40:07;;;;;;;;;44.67;31.67;;;;;9.18;84.49;100873.13;5011501;28;8871;-56
2021/03/31 05:42:36;;;;;;;;;49.33;37.33;;;;;9.17;82.76;100874.06;5010395;28;8866;-57
2021/03/31 05:45:10;;;;;;;;;35.33;29.33;;;;;9.75;80.79;100869.19;5010876;28;8841;-57
2021/03/31 05:47:41;;;;;;;;;39.33;33.33;;;;;9.91;78.90;100880.19;4996671;28;8845;-55
2021/03/31 05:50:15;;;;;;;;;46.33;37.00;;;;;10.03;79.05;100878.78;5002309;28;8862;-56
2021/03/31 05:52:45;;;;;;;;;42.00;36.67;;;;;10.05;78.00;100874.25;5010979;28;8855;-57
2021/03/31 05:55:16;;;;;;;;;42.33;38.33;;;;;10.13;77.72;100877.50;5011846;28;8868;-56
2021/03/31 05:57:44;;;;;;;;;49.00;39.00;;;;;10.11;77.39;100882.06;4996395;28;8849;-56
2021/03/31 06:00:19;;;;;;;;;51.33;40.00;;;;;10.22;77.39;100877.13;4993760;28;8830;-56
2021/03/31 06:02:48;;;;;;;;;44.33;37.00;;;;;10.26;77.56;100883.25;5011539;28;8863;-57
2021/03/31 06:05:17;;;;;;;;;43.33;36.33;;;;;10.04;78.21;100876.06;5009165;28;8863;-58
2021/03/31 06:07:49;;;;;;;;;42.33;36.33;;;;;10.35;76.96;100880.22;5011143;28;8872;-56
2021/03/31 06:10:19;;;;;;;;;41.67;34.33;;;;;10.20;77.60;100878.13;5009490;28;8839;-57
2021/03/31 06:12:58;;;;;;;;;35.00;28.67;;;;;10.09;76.96;100874.06;5010451;28;8859;-57
2021/03/31 06:15:42;;;;;;;;;35.33;32.67;;;;;10.18;77.87;100880.00;5011652;28;8839;-57
2021/03/31 06:18:16;;;;;;;;;35.33;31.33;;;;;10.24;77.53;100880.63;4994694;28;8826;-56
2021/03/31 06:21:00;;;;;;;;;43.33;36.67;;;;;10.17;76.90;100884.50;4993063;28;8971;-57
2021/03/31 06:23:48;;;;;;;;;34.33;29.33;;;;;10.25;77.85;100882.38;4999537;28;8847;-58
2021/03/31 06:26:33;;;;;;;;;37.00;32.00;;;;;10.62;75.54;100874.63;5000735;28;8848;-57
2021/03/31 06:29:07;;;;;;;;;35.00;30.00;;;;;10.54;76.61;100880.31;5014809;28;8846;-57
2021/03/31 06:31:50;;;;;;;;;33.00;30.00;;;;;10.57;76.87;100877.50;5009148;28;8895;-56
2021/03/31 06:34:27;;;;;;;;;29.00;29.00;;;;;10.70;75.47;100878.72;4999945;28;8953;-57
2021/03/31 06:36:58;;;;;;;;;37.67;33.33;;;;;10.95;75.25;100873.16;5014129;28;8823;-58
2021/03/31 06:39:30;;;;;;;;;39.00;31.67;;;;;11.06;74.77;100872.69;5003987;28;8877;-57
2021/03/31 06:42:02;;;;;;;;;33.33;30.00;;;;;10.92;74.01;100864.34;5010824;28;8876;-58
2021/03/31 06:44:44;;;;;;;;;35.67;30.33;;;;;11.10;73.64;100865.34;4995911;28;8843;-57
2021/03/31 06:47:20;;;;;;;;;39.67;34.33;;;;;11.27;74.56;100873.53;5000493;28;8833;-58
2021/03/31 06:49:49;;;;;;;;;42.67;34.67;;;;;11.59;73.82;100868.50;4995138;28;8888;-58
2021/03/31 06:52:16;;;;;;;;;33.33;29.00;;;;;11.37;74.47;100868.59;5011487;28;8847;-58
2021/03/31 06:54:47;;;;;;;;;44.33;36.00;;;;;11.40;74.26;100869.34;4999633;28;8947;-58
2021/03/31 06:57:35;;;;;;;;;44.33;37.00;;;;;11.40;73.85;100872.03;5013417;28;8969;-58
2021/03/31 07:00:12;;;;;;;;;44.33;36.00;;;;;11.47;73.57;100869.91;4997154;28;8855;-58
2021/03/31 07:02:45;;;;;;;;;40.00;36.00;;;;;12.06;72.50;100862.69;4994568;28;8868;-58
2021/03/31 07:05:13;;;;;;;;;44.00;38.00;;;;;11.98;73.08;100865.75;5032840;28;8819;-58
2021/03/31 07:07:42;;;;;;;;;45.00;37.33;;;;;12.34;71.04;100877.47;5014127;28;8876;-58
2021/03/31 07:10:18;;;;;;;;;34.67;33.00;;;;;12.47;71.39;100867.81;5000537;28;11598;-57
2021/03/31 07:12:49;;;;;;;;;40.67;36.00;;;;;12.51;69.08;100881.06;4994449;28;8857;-58
2021/03/31 07:15:24;;;;;;;;;40.67;37.67;;;;;12.42;69.96;100875.25;5006445;28;8838;-58
2021/03/31 07:17:56;;;;;;;;;50.33;37.33;;;;;12.59;69.61;100871.75;5013845;28;11679;-58
2021/03/31 07:20:26;;;;;;;;;50.00;38.67;;;;;12.60;69.24;100876.16;5012149;28;8882;-58
2021/03/31 07:22:54;;;;;;;;;44.00;37.00;;;;;12.57;68.83;100879.88;4993639;28;8946;-59
2021/03/31 07:25:23;;;;;;;;;51.67;36.67;;;;;12.37;68.71;100878.19;4999155;28;8932;-58
2021/03/31 07:27:51;;;;;;;;;43.33;37.67;;;;;12.21;69.69;100882.59;5009498;28;8839;-58
2021/03/31 07:30:24;;;;;;;;;42.67;36.00;;;;;12.49;69.07;100882.09;5043802;28;11625;-58
2021/03/31 07:33:18;;;;;;;;;43.00;37.67;;;;;12.48;68.75;100878.53;4993527;28;11658;-58
2021/03/31 07:35:47;;;;;;;;;43.67;37.67;;;;;12.55;67.66;100875.53;4993419;28;8867;-58
2021/03/31 07:38:18;;;;;;;;;28.67;27.00;;;;;12.96;66.90;100876.97;4994117;28;8877;-58
2021/03/31 07:40:50;;;;;;;;;42.67;38.00;;;;;12.89;66.29;100877.34;5004203;28;11587;-58
2021/03/31 07:43:46;;;;;;;;;49.00;41.00;;;;;13.02;67.38;100874.91;4995187;28;8845;-58
2021/03/31 07:46:24;;;;;;;;;61.67;44.33;;;;;12.90;66.92;100874.59;4988452;28;8885;-58
2021/03/31 07:48:51;;;;;;;;;49.00;36.67;;;;;13.16;65.01;100872.31;5010687;28;9625;-58
2021/03/31 07:51:22;;;;;;;;;47.00;37.33;;;;;13.37;65.51;100878.44;5004481;28;8935;-59
2021/03/31 07:53:51;;;;;;;;;49.67;39.00;;;;;13.55;67.13;100873.88;4993871;28;10047;-58
2021/03/31 07:56:31;;;;;;;;;38.75;33.50;;;;;13.29;65.28;100873.44;4998292;28;8850;-57
2021/03/31 07:59:04;;;;;;;;;40.67;35.33;;;;;13.51;64.67;100875.00;4993865;28;11599;-58
2021/03/31 08:01:38;;;;;;;;;38.00;33.75;;;;;13.60;64.69;100871.78;4997055;28;11578;-58
2021/03/31 08:04:09;;;;;;;;;37.50;30.50;;;;;13.42;64.64;100870.09;5024592;28;11594;-59
2021/03/31 08:06:39;;;;;;;;;36.00;33.25;;;;;13.55;65.24;100865.78;4993699;28;12323;-58
2021/03/31 08:09:19;;;;;;;;;33.00;30.25;;;;;13.94;64.25;100869.91;4994973;28;11584;-58
2021/03/31 08:12:01;;;;;;;;;41.00;34.00;;;;;14.01;64.04;100866.78;4992967;28;11614;-58
2021/03/31 08:14:29;;;;;;;;;39.25;34.00;;;;;13.91;64.16;100864.69;4993265;28;11617;-58
2021/03/31 08:17:00;;;;;;;;;31.00;29.75;;;;;13.99;64.72;100868.69;5004591;28;11616;-58
2021/03/31 08:19:32;;;;;;;;;33.50;31.50;;;;;13.97;64.13;100856.22;5010835;28;12323;-58
2021/03/31 08:22:18;;;;;;;;;37.50;34.00;;;;;14.28;63.11;100861.59;5010530;28;12395;-58
2021/03/31 08:24:55;;;;;;;;;33.25;29.50;;;;;14.59;62.04;100851.72;5005535;28;11607;-58
2021/03/31 08:27:23;;;;;;;;;39.75;33.75;;;;;14.81;63.31;100845.91;5012300;28;11598;-58
2021/03/31 08:29:54;;;;;;;;;33.50;26.25;;;;;14.66;62.85;100846.81;5010935;28;12331;-59
2021/03/31 08:32:24;;;;;;;;;34.50;30.50;;;;;14.61;62.99;100846.22;5011483;28;11621;-58
2021/03/31 08:35:11;;;;;;;;;40.00;33.25;;;;;14.92;62.19;100847.94;5012516;28;11580;-59
2021/03/31 08:37:38;;;;;;;;;33.50;30.00;;;;;14.87;62.69;100841.94;5012072;28;11582;-58
2021/03/31 08:40:08;;;;;;;;;34.75;30.75;;;;;15.29;62.33;100845.66;5012050;28;11604;-58
2021/03/31 08:42:54;;;;;;;;;42.00;33.25;;;;;15.25;61.43;100845.00;5012094;28;11705;-58
2021/03/31 08:45:29;;;;;;;;;32.25;29.50;;;;;15.37;59.88;100843.34;5010850;28;11591;-58
2021/03/31 08:47:58;;;;;;;;;33.25;26.50;;;;;15.36;60.29;100841.63;5011373;28;11587;-59
2021/03/31 08:50:29;;;;;;;;;39.50;33.00;;;;;15.79;59.07;100841.59;5008063;28;11588;-58
2021/03/31 08:53:05;;;;;;;;;32.25;29.50;;;;;15.72;58.55;100834.88;5011672;28;11624;-58
2021/03/31 08:55:35;;;;;;;;;42.50;33.00;;;;;15.80;58.96;100836.09;5010439;28;12361;-58
2021/03/31 08:58:09;;;;;;;;;31.50;28.25;;;;;15.83;58.55;100840.44;5011092;28;11573;-58
2021/03/31 09:00:59;;;;;;;;;34.75;30.75;;;;;15.71;57.49;100841.22;5011831;28;11617;-58
2021/03/31 09:03:31;;;;;;;;;34.25;29.75;;;;;15.69;58.25;100832.34;5038316;28;11573;-58
2021/03/31 09:06:02;;;;;;;;;33.00;28.00;;;;;15.80;58.12;100840.66;4992122;28;11594;-59
2021/03/31 09:08:30;;;;;;;;;34.00;30.25;;;;;16.12;56.94;100834.97;4992386;28;11628;-58
2021/03/31 09:11:04;;;;;;;;;27.75;27.00;;;;;16.36;57.61;100833.31;4991609;28;11625;-58
2021/03/31 09:13:38;;;;;;;;;38.25;29.75;;;;;16.86;54.60;100826.28;4999934;28;11572;-58
2021/03/31 09:16:13;;;;;;;;;30.50;28.75;;;;;16.87;54.62;100829.88;5011284;28;11594;-59
2021/03/31 09:18:44;;;;;;;;;29.75;26.50;;;;;17.85;52.87;100822.00;5006427;28;11579;-58
2021/03/31 09:21:14;;;;;;;;;29.50;27.25;;;;;16.83;53.43;100823.81;5011806;28;11605;-59
2021/03/31 09:23:46;;;;;;;;;30.75;27.25;;;;;17.67;51.69;100825.06;5010287;28;11578;-59
2021/03/31 09:26:13;;;;;;;;;32.50;31.00;;;;;16.89;53.42;100820.66;5011408;28;11563;-58
2021/03/31 09:28:40;;;;;;;;;34.50;29.75;;;;;17.88;51.82;100819.06;5011185;28;11596;-58
2021/03/31 09:31:12;;;;;;;;;34.50;28.50;;;;;17.41;50.86;100809.81;5008856;28;11635;-59
2021/03/31 09:33:44;;;;;;;;;26.25;24.50;;;;;17.62;51.34;100808.22;5005316;28;11700;-59
2021/03/31 09:36:17;;;;;;;;;29.00;25.00;;;;;18.04;51.72;100814.22;5011263;28;12389;-58
2021/03/31 09:38:56;;;;;;;;;32.75;26.75;;;;;18.29;51.08;100810.50;5011183;28;11651;-59
2021/03/31 09:41:32;;;;;;;;;25.25;21.25;;;;;18.68;50.84;100799.41;5010829;28;11662;-58
2021/03/31 09:43:59;;;;;;;;;23.25;19.00;;;;;18.94;49.37;100798.28;5009921;28;11633;-58
2021/03/31 09:46:29;;;;;;;;;20.25;18.75;;;;;19.21;49.34;100799.78;5010795;28;11590;-59
2021/03/31 09:48:56;;;;;;;;;23.50;17.75;;;;;18.95;49.83;100799.13;5010663;28;11532;-58
2021/03/31 09:51:24;;;;;;;;;20.75;17.75;;;;;19.16;49.61;100793.84;5010094;28;11611;-58
2021/03/31 09:53:52;;;;;;;;;17.50;16.00;;;;;19.04;48.96;100793.84;5009902;28;11573;-59
2021/03/31 09:56:19;;;;;;;;;24.00;22.50;;;;;18.84;49.52;100789.09;5013667;28;11342;-59
2021/03/31 09:58:49;;;;;;;;;27.00;23.50;;;;;19.39;48.00;100787.41;5015237;28;11486;-58
2021/03/31 10:01:18;;;;;;;;;19.00;15.75;;;;;19.02;48.49;100786.78;5014665;28;11526;-59
2021/03/31 10:03:46;;;;;;;;;21.00;19.00;;;;;19.07;49.71;100777.25;5013441;28;11211;-59
2021/03/31 10:06:26;;;;;;;;;21.75;17.25;;;;;19.69;48.32;100777.75;5014544;28;12246;-59
2021/03/31 10:08:54;;;;;;;;;15.00;15.00;;;;;19.39;48.04;100776.53;5013204;28;11275;-59
2021/03/31 10:11:31;;;;;;;;;18.50;17.00;;;;;19.32;49.20;100774.41;5014717;28;11055;-59
2021/03/31 10:14:01;;;;;;;;;19.25;18.00;;;;;19.74;48.58;100764.63;5014365;28;11539;-59
2021/03/31 10:16:39;;;;;;;;;20.50;17.50;;;;;19.54;48.42;100768.97;5013292;28;11137;-60
2021/03/31 10:19:09;;;;;;;;;17.75;17.00;;;;;19.91;48.78;100761.38;5015205;28;11217;-59
2021/03/31 10:21:38;;;;;;;;;22.50;21.00;;;;;19.50;48.29;100759.31;5015515;28;11049;-59
2021/03/31 10:24:07;;;;;;;;;20.00;18.75;;;;;19.64;48.46;100747.25;5012882;28;11284;-59
2021/03/31 10:26:50;;;;;;;;;22.75;17.75;;;;;19.44;49.08;100748.91;5015285;28;11029;-59
2021/03/31 10:29:49;;;;;;;;;23.50;21.00;;;;;19.05;48.97;100745.69;5012709;28;11720;-59
2021/03/31 10:32:36;;;;;;;;;19.50;16.75;;;;;19.93;48.10;100743.03;5010425;28;11366;-59
2021/03/31 10:35:03;;;;;;;;;21.75;18.25;;;;;20.11;47.03;100734.28;5014842;28;11055;-58
2021/03/31 10:37:36;;;;;;;;;18.25;18.25;;;;;20.24;46.75;100731.38;5013492;28;11184;-58
2021/03/31 10:52:06;;;;;;;;;20.00;17.75;;;;;19.63;48.00;100710.97;5009819;28;10930;-59
2021/03/31 10:54:14;;;;;;;;;25.50;21.50;;;;;20.18;47.51;100702.75;5010167;28;10922;-59
2021/03/31 10:56:50;;;;;;;;;20.75;20.00;;;;;19.92;47.71;100708.56;5007790;28;11220;-58
2021/03/31 10:59:17;;;;;;;;;18.50;18.50;;;;;20.41;47.43;100708.13;5011921;28;11287;-58
2021/03/31 11:01:44;;;;;;;;;20.00;17.25;;;;;20.34;47.13;100702.31;5012928;28;11147;-59
2021/03/31 11:04:11;;;;;;;;;20.75;17.00;;;;;20.97;47.06;100700.41;5012838;28;11135;-59
2021/03/31 11:06:39;;;;;;;;;19.75;19.50;;;;;20.49;47.55;100703.72;5011482;28;11109;-58
2021/03/31 11:09:06;;;;;;;;;15.75;15.00;;;;;20.27;47.93;100701.09;5013505;28;11704;-58
2021/03/31 11:11:37;;;;;;;;;19.75;19.50;;;;;20.24;46.87;100698.63;5010838;28;11699;-59
2021/03/31 11:14:04;;;;;;;;;19.50;17.50;;;;;20.64;47.12;100696.06;5005276;28;10828;-57
2021/03/31 11:16:30;;;;;;;;;23.75;20.50;;;;;21.02;46.04;100692.69;5013547;28;10988;-59
2021/03/31 11:26:52;;;;;;;;;18.00;16.75;;;;;20.07;48.02;100664.66;5012005;28;10672;-59
2021/03/31 11:29:18;;;;;;;;;22.75;17.50;;;;;20.05;48.93;100664.78;5013326;28;10831;-59
2021/03/31 11:31:45;;;;;;;;;18.25;16.50;;;;;20.72;47.00;100663.53;5012290;28;12084;-59
2021/03/31 11:34:13;;;;;;;;;19.50;19.50;;;;;21.21;46.31;100653.66;5010609;28;10826;-59
2021/03/31 11:36:40;;;;;;;;;17.00;17.00;;;;;21.18;45.76;100656.66;5013834;28;10965;-59
2021/03/31 11:39:07;;;;;;;;;22.00;18.75;;;;;20.80;46.61;100655.53;5013428;28;10632;-60
2021/03/31 11:41:34;;;;;;;;;20.50;17.50;;;;;20.89;46.46;100655.69;5009164;28;10758;-59
2021/03/31 11:44:01;;;;;;;;;21.25;19.75;;;;;20.91;46.48;100656.44;4994200;28;10906;-59
2021/03/31 11:46:28;;;;;;;;;20.25;14.75;;;;;21.48;46.17;100650.31;4993517;28;10902;-59
2021/03/31 11:48:54;;;;;;;;;19.50;15.25;;;;;21.29;45.46;100652.09;5011805;28;10743;-59
2021/03/31 11:51:21;;;;;;;;;17.50;17.25;;;;;21.14;46.07;100641.53;5013437;28;10558;-60
2021/03/31 11:53:48;;;;;;;;;19.00;17.00;;;;;21.70;44.80;100649.19;5013000;28;10535;-60
2021/03/31 11:56:15;;;;;;;;;22.25;19.50;;;;;22.31;44.61;100639.81;5013246;28;10692;-59
2021/03/31 11:58:42;;;;;;;;;18.25;17.00;;;;;22.14;44.09;100640.50;5013311;28;10492;-59